createdAt,value
2022-09-27T00:11:24.546Z,964.58
2022-09-27T00:26:26.373Z,964.38
2022-09-27T00:41:28.200Z,964.27
2022-09-27T00:56:30.037Z,964.32
2022-09-27T01:11:31.853Z,964.29
2022-09-27T01:26:33.683Z,964.38
2022-09-27T01:41:35.548Z,964.49
2022-09-27T01:56:37.397Z,964.57
2022-09-27T02:11:39.222Z,964.75
2022-09-27T02:26:41.068Z,964.95
2022-09-27T02:41:42.925Z,965
2022-09-27T02:56:44.754Z,965.01
2022-09-27T03:11:46.604Z,965.13
2022-09-27T03:26:48.462Z,965.12
2022-09-27T03:41:50.300Z,965.21
2022-09-27T03:56:52.147Z,965.28
2022-09-27T04:11:53.979Z,965.26
2022-09-27T04:26:55.801Z,965.33
2022-09-27T04:41:57.641Z,965.44
2022-09-27T04:56:59.452Z,965.55
2022-09-27T05:12:01.303Z,965.61
2022-09-27T05:27:03.167Z,965.67
2022-09-27T05:42:05.041Z,965.68
2022-09-27T05:57:06.893Z,965.74
2022-09-27T06:12:08.738Z,965.83
2022-09-27T06:27:10.562Z,965.9
2022-09-27T06:42:12.369Z,965.95
2022-09-27T06:57:14.160Z,965.98
2022-09-27T07:12:15.964Z,966.01
2022-09-27T07:27:17.764Z,966.08
2022-09-27T07:42:19.564Z,966.14
2022-09-27T07:57:21.417Z,966.2
2022-09-27T08:12:23.264Z,966.26
2022-09-27T08:27:25.081Z,966.26
2022-09-27T08:42:26.932Z,966.29
2022-09-27T08:57:28.756Z,966.36
2022-09-27T09:12:30.592Z,966.36
2022-09-27T09:27:32.430Z,966.51
2022-09-27T09:42:34.242Z,966.54
2022-09-27T09:57:36.096Z,966.56
2022-09-27T10:12:37.960Z,966.49
2022-09-27T10:27:39.799Z,966.48
2022-09-27T10:42:41.655Z,966.59
2022-09-27T10:57:45.256Z,966.66
2022-09-27T11:12:47.189Z,966.64
2022-09-27T11:27:49.063Z,966.63
2022-09-27T11:42:50.936Z,966.71
2022-09-27T11:57:52.788Z,966.73
2022-09-27T12:12:54.657Z,966.7
2022-09-27T12:27:56.486Z,966.65
2022-09-27T12:42:58.267Z,966.65
2022-09-27T12:58:00.126Z,966.75
2022-09-27T13:13:01.982Z,966.72
2022-09-27T13:28:03.817Z,966.84
2022-09-27T13:43:05.669Z,966.88
2022-09-27T13:58:07.496Z,967.03
2022-09-27T14:13:09.351Z,967.02
2022-09-27T14:28:11.179Z,966.98
2022-09-27T14:43:13.018Z,966.98
2022-09-27T14:58:35.705Z,966.93
2022-09-27T15:13:44.927Z,966.99
2022-09-27T15:28:46.767Z,966.9
2022-09-27T15:43:48.619Z,966.83
2022-09-27T15:58:50.463Z,966.75
2022-09-27T16:13:52.310Z,966.69
2022-09-27T16:28:54.160Z,966.57
2022-09-27T16:43:56.010Z,966.32
2022-09-27T16:58:57.851Z,966.22
2022-09-27T17:13:59.682Z,966.1
2022-09-27T17:29:01.514Z,965.83
2022-09-27T17:44:03.370Z,965.66
2022-09-27T17:59:05.229Z,965.56
2022-09-27T18:14:07.033Z,965.34
2022-09-27T18:29:08.821Z,965.15
2022-09-27T18:44:10.709Z,964.82
2022-09-27T18:59:12.619Z,964.52
2022-09-27T19:14:14.490Z,964.12
2022-09-27T19:29:16.473Z,963.88
2022-09-27T19:44:18.447Z,963.58
2022-09-27T19:59:20.494Z,963.29
2022-09-27T20:14:22.413Z,963.02
2022-09-27T20:29:24.263Z,962.71
2022-09-27T20:44:26.100Z,962.41
2022-09-27T20:59:27.925Z,962.15
2022-09-27T21:14:29.786Z,961.8
2022-09-27T21:29:31.654Z,961.45
2022-09-27T21:44:33.524Z,961.17
2022-09-27T21:59:35.370Z,960.92
2022-09-27T22:14:37.191Z,960.73
2022-09-27T22:29:39.052Z,960.5
2022-09-27T22:44:40.915Z,960.31
2022-09-27T22:59:42.775Z,960.11
2022-09-27T23:14:44.601Z,959.91
2022-09-27T23:29:46.432Z,959.74
2022-09-27T23:44:48.286Z,959.64
2022-09-27T23:59:50.149Z,959.6
